Terminal Aerodrome Forecast
Issued by NWS

Home | Current Version | Previous Version | Text Only | Print | Product List | Glossary Off
Versions: 1 2 3 4 5 6 7 8 9 10 11 12 13 14 15 16 17 18 19

984
FTUS43 KMPX 280835 AAA
TAFRNH
TAF AMD
KRNH 280835Z 2809/2906 VRB03KT 2SM BR OVC003
      TEMPO 2809/2813 1/2SM FG VV002
     FM281300 29002KT 4SM -SHRA BR BKN007 OVC015
     FM281600 15005KT 5SM BR VCSH OVC020
     FM281800 18008KT P6SM SCT025 BKN050
     FM282100 20005KT P6SM VCSH BKN050=

USA.gov is the U.S. government's official web portal to all federal, state and local government web resources and services.